Time;durP1;ratioP1;P1;durP2;ratioP2;P2;SDS_P1;SDS_P2;PMS_P1;PMS_P2;Temp;Humidity;BMP_temperature;BMP_pressure;BME280_temperature;BME280_humidity;BME280_pressure;Samples;Min_cycle;Max_cycle;Signal;HPM_P1;HPM_P2
2022/01/22 00:02:05;;;;;;;17.98;5.97;;;;;;;-3.13;56.98;146896.14;1779221;79;21836;-59
2022/01/22 00:04:32;;;;;;;14.07;5.28;;;;;;;-3.10;57.09;146903.84;1779759;78;20991;-58
2022/01/22 00:07:01;;;;;;;15.10;5.30;;;;;;;-3.07;56.97;146911.53;1777916;80;21534;-60
2022/01/22 00:09:36;;;;;;;12.82;4.72;;;;;;;-3.03;56.74;146921.80;1775617;79;20957;-60
2022/01/22 00:11:59;;;;;;;12.53;5.22;;;;;;;-3.02;56.48;146925.67;1766949;80;21102;-60
2022/01/22 00:14:26;;;;;;;10.45;4.17;;;;;;;-3.02;56.29;146925.67;1776892;80;21093;-59
2022/01/22 00:16:55;;;;;;;13.28;5.25;;;;;;;-3.00;56.18;146929.50;1781618;79;21260;-59
2022/01/22 00:19:22;;;;;;;13.62;4.78;;;;;;;-2.95;56.02;146942.37;1777358;80;21106;-60
2022/01/22 00:21:50;;;;;;;18.60;6.75;;;;;;;-2.91;55.74;146952.63;1774379;79;21033;-59
2022/01/22 00:24:16;;;;;;;21.02;8.25;;;;;;;-2.88;55.50;146959.02;1777171;80;21070;-59
2022/01/22 00:26:44;;;;;;;21.25;8.25;;;;;;;-2.85;55.42;146965.45;1780176;79;22219;-59
2022/01/22 00:29:11;;;;;;;32.65;9.60;;;;;;;-2.79;55.20;146980.84;1773785;80;21136;-59
2022/01/22 00:31:39;;;;;;;28.05;9.50;;;;;;;-2.78;54.99;146983.41;1770425;79;21090;-59
2022/01/22 00:34:07;;;;;;;22.37;10.63;;;;;;;-2.78;54.85;146983.41;1775951;80;21078;-62
2022/01/22 00:36:35;;;;;;;36.23;11.08;;;;;;;-2.81;54.78;146975.72;1772274;80;21104;-59
2022/01/22 00:39:02;;;;;;;27.58;10.90;;;;;;;-2.82;54.79;146973.16;1776905;80;21116;-59
2022/01/22 00:41:29;;;;;;;22.75;10.70;;;;;;;-2.82;54.81;146973.16;1747674;80;21525;-59
2022/01/22 00:43:56;;;;;;;22.67;10.63;;;;;;;-2.83;54.86;146970.59;1779381;80;21018;-59
2022/01/22 00:46:23;;;;;;;22.10;10.70;;;;;;;-2.83;54.92;146971.91;1777596;80;21070;-60
2022/01/22 00:48:50;;;;;;;23.57;11.90;;;;;;;-2.82;54.96;146973.16;1785802;79;21081;-60
2022/01/22 00:51:16;;;;;;;35.70;11.10;;;;;;;-2.84;54.98;146968.02;1783437;79;21089;-59
2022/01/22 00:53:43;;;;;;;30.27;11.57;;;;;;;-2.90;55.04;146955.19;1786463;79;20958;-60
2022/01/22 00:56:13;;;;;;;26.43;10.70;;;;;;;-2.94;55.13;146944.94;1787402;79;21030;-59
2022/01/22 00:58:40;;;;;;;24.77;10.15;;;;;;;-2.99;55.21;146932.06;1778257;79;21576;-61
2022/01/22 01:01:07;;;;;;;20.68;8.70;;;;;;;-3.04;55.42;146919.23;1790137;79;21871;-59
2022/01/22 01:03:35;;;;;;;19.98;8.40;;;;;;;-3.09;55.56;146907.72;1788124;79;21147;-59
2022/01/22 01:06:03;;;;;;;21.00;8.45;;;;;;;-3.14;55.66;146893.58;1786921;79;21074;-59
2022/01/22 01:08:34;;;;;;;18.70;6.42;;;;;;;-3.20;55.90;146879.45;1785975;79;21448;-58
2022/01/22 01:11:03;;;;;;;14.38;6.53;;;;;;;-3.25;56.19;146867.89;1787354;79;21077;-59
2022/01/22 01:13:35;;;;;;;18.87;7.05;;;;;;;-3.29;56.52;146857.63;1787294;79;20952;-59
2022/01/22 01:16:13;;;;;;;15.72;7.33;;;;;;;-3.33;56.79;146847.37;1786715;79;21116;-59
2022/01/22 01:32:27;;;;;;;15.05;5.00;;;;;;;-3.62;59.83;146776.78;1783655;79;21054;-58
2022/01/22 01:34:51;;;;;;;12.10;4.80;;;;;;;-3.64;60.23;146770.41;1784793;79;21031;-60
2022/01/22 01:37:19;;;;;;;12.87;5.27;;;;;;;-3.67;60.47;146763.97;1787436;79;21030;-59
2022/01/22 01:39:49;;;;;;;14.50;5.17;;;;;;;-3.67;60.76;146763.97;1792115;79;20988;-59
2022/01/22 01:42:30;;;;;;;14.47;5.33;;;;;;;-3.68;60.86;146760.09;1785276;79;21326;-59
2022/01/22 01:44:47;;;;;;;13.85;5.55;;;;;;;-3.70;60.99;146754.97;1784594;79;21108;-59
2022/01/22 01:47:16;;;;;;;13.10;5.75;;;;;;;-3.68;61.18;146760.09;1788776;78;21473;-59
2022/01/22 01:49:44;;;;;;;13.67;5.47;;;;;;;-3.68;61.21;146761.41;1782826;80;21022;-60
2022/01/22 01:52:18;;;;;;;10.03;4.70;;;;;;;-3.68;61.26;146760.09;1785433;79;20942;-60
2022/01/22 01:59:56;;;;;;;13.48;5.75;;;;;;;-3.71;62.15;146752.41;1772428;80;21106;-59
2022/01/22 02:02:30;;;;;;;12.03;4.40;;;;;;;-3.74;62.56;146747.28;1782723;79;21097;-59
2022/01/22 02:04:56;;;;;;;14.63;5.40;;;;;;;-3.77;62.97;146739.59;1764501;80;21049;-60
2022/01/22 02:07:23;;;;;;;14.10;5.75;;;;;;;-3.82;63.34;146726.78;1762613;80;21134;-58
2022/01/22 02:09:52;;;;;;;11.90;4.97;;;;;;;-3.86;64.05;146715.22;1777182;78;21646;-59
2022/01/22 02:12:42;;;;;;;13.53;5.70;;;;;;;-3.88;64.41;146711.34;1777643;80;21121;-59
2022/01/22 02:23:44;;;;;;;11.03;5.10;;;;;;;-3.96;66.16;146690.84;1696408;83;21160;-59
2022/01/22 02:26:10;;;;;;;12.97;4.47;;;;;;;-4.00;66.51;146681.84;1699360;81;21109;-60
2022/01/22 02:28:39;;;;;;;11.33;4.67;;;;;;;-4.04;66.89;146672.91;1747609;80;21023;-59
2022/01/22 02:31:14;;;;;;;10.80;4.45;;;;;;;-4.04;67.30;146672.91;1786707;79;21424;-59
2022/01/22 02:34:31;;;;;;;13.43;4.83;;;;;;;-4.05;67.39;146670.34;1780939;80;21917;-58
2022/01/22 02:38:51;;;;;;;9.97;4.63;;;;;;;-4.11;67.41;146654.91;1783307;80;21045;-59
2022/01/22 02:41:16;;;;;;;12.47;4.60;;;;;;;-4.15;67.46;146644.66;1780903;79;21081;-59
2022/01/22 02:43:39;;;;;;;13.60;5.10;;;;;;;-4.17;67.50;146639.53;1781838;78;20983;-59
2022/01/22 02:46:05;;;;;;;14.10;5.20;;;;;;;-4.22;67.51;146626.72;1787535;79;21479;-59
2022/01/22 02:48:32;;;;;;;12.83;4.97;;;;;;;-4.26;67.51;146616.47;1775676;80;21464;-59
2022/01/22 02:50:59;;;;;;;10.77;4.30;;;;;;;-4.27;67.48;146613.91;1772791;79;21019;-59
2022/01/22 02:53:27;;;;;;;10.83;4.33;;;;;;;-4.29;67.47;146608.78;1776600;80;21457;-59
2022/01/22 02:55:55;;;;;;;12.37;4.77;;;;;;;-4.34;67.50;146598.48;1777412;80;21074;-60
2022/01/22 02:58:22;;;;;;;12.30;4.57;;;;;;;-4.35;67.64;146595.92;1779888;79;21845;-59
2022/01/22 03:00:49;;;;;;;15.07;5.17;;;;;;;-4.35;67.67;146595.92;1780988;79;20995;-59
2022/01/22 03:03:16;;;;;;;10.93;4.03;;;;;;;-4.36;67.75;146593.37;1773154;80;21047;-58
2022/01/22 03:05:43;;;;;;;12.43;4.87;;;;;;;-4.38;67.72;146586.98;1775195;80;21090;-60
2022/01/22 03:08:12;;;;;;;13.67;4.53;;;;;;;-4.41;67.74;146580.56;1780118;80;21662;-60
2022/01/22 03:10:40;;;;;;;12.00;4.67;;;;;;;-4.41;67.81;146579.30;1770043;80;21124;-60
2022/01/22 03:15:52;;;;;;;11.63;4.87;;;;;;;-4.40;67.68;146581.86;1774841;79;21483;-59
2022/01/22 03:18:17;;;;;;;13.37;4.33;;;;;;;-4.38;67.67;146588.25;1769878;80;21198;-59
2022/01/22 03:29:11;;;;;;;11.30;4.53;;;;;;;-4.36;67.15;146592.11;1722413;81;21590;-59
2022/01/22 03:31:35;;;;;;;13.25;4.45;;;;;;;-4.39;67.07;146584.42;1757163;81;21293;-61
2022/01/22 03:34:01;;;;;;;12.83;4.07;;;;;;;-4.42;67.01;146578.00;1756734;81;21121;-58
2022/01/22 03:36:30;;;;;;;11.80;4.60;;;;;;;-4.45;66.92;146570.31;1756297;80;23164;-60
2022/01/22 03:38:57;;;;;;;10.68;4.90;;;;;;;-4.48;66.92;146562.63;1756924;81;21106;-60
2022/01/22 03:41:24;;;;;;;12.00;4.47;;;;;;;-4.51;66.92;146556.19;1760133;80;21093;-60
2022/01/22 03:43:53;;;;;;;15.47;4.57;;;;;;;-4.52;66.98;146552.38;1755395;81;21035;-59
2022/01/22 03:46:20;;;;;;;14.47;4.90;;;;;;;-4.55;66.99;146545.94;1756890;81;21065;-59
2022/01/22 03:48:48;;;;;;;12.47;4.83;;;;;;;-4.58;67.04;146536.95;1757353;81;21510;-59
2022/01/22 03:51:16;;;;;;;15.90;5.13;;;;;;;-4.61;67.20;146531.83;1755525;81;20963;-58
2022/01/22 03:53:43;;;;;;;17.70;4.90;;;;;;;-4.65;67.34;146520.28;1756706;81;20958;-59
2022/01/22 03:56:11;;;;;;;9.83;4.00;;;;;;;-4.69;67.53;146511.34;1756339;79;21497;-59
2022/01/22 03:58:57;;;;;;;11.22;3.92;;;;;;;-4.71;67.76;146506.22;1753505;81;21028;-58
2022/01/22 04:02:05;;;;;;;14.90;4.30;;;;;;;-4.71;67.92;146506.22;1756338;81;21213;-59
2022/01/22 04:04:19;;;;;;;10.33;4.30;;;;;;;-4.73;67.98;146499.80;1749603;81;21037;-60
2022/01/22 04:09:09;;;;;;;9.90;4.27;;;;;;;-4.72;68.07;146502.34;1750585;80;21071;-59
2022/01/22 04:11:39;;;;;;;10.00;4.07;;;;;;;-4.71;68.11;146506.22;1759989;79;21562;-59
2022/01/22 04:14:12;;;;;;;12.00;3.60;;;;;;;-4.72;68.03;146503.66;1755652;80;21519;-58
2022/01/22 04:16:37;;;;;;;8.83;3.73;;;;;;;-4.71;67.93;146506.22;1755038;81;21009;-59
2022/01/22 04:24:54;;;;;;;;;;;;;;;-4.70;67.93;146508.78;1758084;79;21064;-60
2022/01/22 04:27:27;;;;;;;11.57;4.33;;;;;;;-4.71;67.97;146504.91;1752909;81;20574;-59
2022/01/22 04:29:57;;;;;;;8.73;3.80;;;;;;;-4.74;68.05;146498.53;1758405;81;21008;-59
2022/01/22 04:32:25;;;;;;;12.43;4.73;;;;;;;-4.73;68.18;146501.09;1753622;81;21374;-60
2022/01/22 04:34:52;;;;;;;9.27;4.43;;;;;;;-4.74;68.21;146498.53;1759202;79;21485;-58
2022/01/22 04:37:19;;;;;;;12.13;4.93;;;;;;;-4.74;68.28;146498.53;1756574;81;21138;-59
2022/01/22 04:39:46;;;;;;;10.27;4.50;;;;;;;-4.74;68.37;146498.53;1755610;81;21148;-59
2022/01/22 04:42:37;;;;;;;10.80;3.97;;;;;;;-4.73;68.34;146499.80;1755058;81;21036;-58
2022/01/22 04:48:12;;;;;;;9.73;3.70;;;;;;;-4.78;68.42;146488.25;1756709;80;21566;-59
2022/01/22 04:55:40;;;;;;;7.93;3.80;;;;;;;-4.87;68.53;146465.19;1751784;80;21033;-60
2022/01/22 04:58:08;;;;;;;12.50;4.53;;;;;;;-4.86;68.58;146467.75;1754567;80;21528;-59
2022/01/22 05:00:38;;;;;;;10.97;4.57;;;;;;;-4.85;68.50;146470.31;1761129;80;20910;-59
2022/01/22 05:03:08;;;;;;;11.60;3.83;;;;;;;-4.85;68.40;146470.31;1756414;80;22712;-59
2022/01/22 05:05:39;;;;;;;10.23;4.10;;;;;;;-4.85;68.27;146471.63;1760317;80;21249;-60
2022/01/22 05:08:08;;;;;;;8.57;3.60;;;;;;;-4.83;68.19;146475.44;1721653;80;21093;-60
2022/01/22 05:10:42;;;;;;;8.30;3.60;;;;;;;-4.84;68.12;146472.88;1752753;80;21139;-59
2022/01/22 05:13:09;;;;;;;7.70;3.73;;;;;;;-4.84;68.11;146472.88;1764899;80;21056;-59
2022/01/22 05:15:37;;;;;;;8.17;3.90;;;;;;;-4.82;67.94;146478.00;1758816;80;21029;-59
2022/01/22 05:18:07;;;;;;;9.90;3.63;;;;;;;-4.83;67.81;146475.44;1753881;80;23052;-59
2022/01/22 05:20:45;;;;;;;8.10;4.07;;;;;;;-4.81;67.74;146480.56;1750305;80;21035;-59
2022/01/22 05:23:11;;;;;;;8.53;3.87;;;;;;;-4.79;67.64;146485.69;1749550;80;21049;-59
2022/01/22 05:25:52;;;;;;;9.73;4.08;;;;;;;-4.79;67.57;146486.98;1761452;80;21072;-59
2022/01/22 05:28:47;;;;;;;8.00;3.70;;;;;;;-4.77;67.52;146492.11;1756858;80;21569;-60
2022/01/22 05:31:19;;;;;;;9.33;3.50;;;;;;;-4.75;67.44;146495.97;1726238;82;21732;-59
2022/01/22 05:39:13;;;;;;;10.43;3.57;;;;;;;-4.77;67.07;146490.80;1760500;80;21032;-58
2022/01/22 05:41:42;;;;;;;13.93;5.27;;;;;;;-4.76;66.95;146493.36;1752039;80;21454;-59
2022/01/22 05:44:09;;;;;;;12.47;5.00;;;;;;;-4.73;66.81;146499.80;1765128;80;21019;-59
2022/01/22 05:46:36;;;;;;;10.27;4.10;;;;;;;-4.70;66.69;146508.78;1766585;80;21075;-59
2022/01/22 05:49:04;;;;;;;8.57;3.67;;;;;;;-4.65;66.63;146521.59;1753086;80;21036;-59
2022/01/22 05:51:32;;;;;;;7.83;3.80;;;;;;;-4.61;66.44;146531.83;1731114;80;21095;-60
2022/01/22 05:59:36;;;;;;;8.63;3.40;;;;;;;-4.48;65.87;146562.63;1686648;83;21430;-60
2022/01/22 06:02:05;;;;;;;9.33;3.97;;;;;;;-4.46;65.52;146567.75;1722631;82;21104;-60
2022/01/22 06:04:34;;;;;;;9.27;4.20;;;;;;;-4.46;65.30;146567.75;1730050;80;21032;-60
2022/01/22 06:07:04;;;;;;;15.28;4.17;;;;;;;-4.44;65.24;146572.87;1724500;80;21049;-59
2022/01/22 06:09:33;;;;;;;13.67;4.43;;;;;;;-4.38;65.21;146588.25;1729822;80;21548;-58
2022/01/22 06:12:15;;;;;;;12.93;4.78;;;;;;;-4.30;65.00;146606.22;1734432;80;21078;-59
2022/01/22 06:14:35;;;;;;;9.95;4.03;;;;;;;-4.23;64.73;146624.16;1736073;80;21692;-60
2022/01/22 06:17:03;;;;;;;11.75;3.75;;;;;;;-4.15;64.47;146644.66;1737242;80;21501;-59
2022/01/22 06:19:35;;;;;;;8.00;3.77;;;;;;;-4.05;64.26;146670.34;1730243;81;21400;-58
2022/01/22 06:22:03;;;;;;;9.87;4.00;;;;;;;-3.95;64.00;146693.41;1735487;81;22355;-60
2022/01/22 06:24:31;;;;;;;7.53;3.50;;;;;;;-3.85;63.74;146719.08;1736770;81;21085;-61
2022/01/22 06:26:58;;;;;;;7.77;3.53;;;;;;;-3.76;63.34;146740.84;1703830;82;21121;-58
2022/01/22 06:29:28;;;;;;;7.22;3.58;;;;;;;-3.67;63.09;146762.66;1689052;83;21465;-60
2022/01/22 06:31:55;;;;;;;11.43;4.40;;;;;;;-3.61;62.89;146778.09;1670447;83;21121;-61
2022/01/22 06:34:22;;;;;;;18.17;4.08;;;;;;;-3.54;62.75;146796.03;1707163;82;21958;-60
2022/01/22 06:36:49;;;;;;;9.40;3.77;;;;;;;-3.47;62.61;146813.98;1711235;82;21089;-59
2022/01/22 06:39:19;;;;;;;9.05;3.72;;;;;;;-3.41;62.41;146826.86;1691229;83;21510;-59
2022/01/22 06:42:04;;;;;;;7.93;3.83;;;;;;;-3.36;62.31;146840.94;1657524;84;21061;-60
2022/01/22 06:44:37;;;;;;;11.78;4.10;;;;;;;-3.32;62.06;146849.94;1662040;83;21001;-58
2022/01/22 06:47:25;;;;;;;11.78;6.03;;;;;;;-3.25;62.14;146866.62;1667789;84;21140;-60
2022/01/22 06:49:55;;;;;;;12.23;3.83;;;;;;;-3.15;62.02;146891.02;1672695;85;21483;-60
2022/01/22 06:52:23;;;;;;;6.15;3.10;;;;;;;-3.07;61.97;146912.84;1736883;82;21065;-60
2022/01/22 06:54:52;;;;;;;9.23;3.72;;;;;;;-2.98;61.76;146933.36;1730730;81;21095;-61
2022/01/22 06:57:19;;;;;;;7.55;3.55;;;;;;;-2.91;61.57;146951.31;1731210;82;21076;-59
2022/01/22 06:59:47;;;;;;;13.85;3.92;;;;;;;-2.84;61.43;146968.02;1741308;82;21076;-59
2022/01/22 07:02:13;;;;;;;9.33;4.10;;;;;;;-2.81;61.22;146975.72;1735694;82;21048;-59
2022/01/22 07:04:40;;;;;;;13.25;4.92;;;;;;;-2.75;61.19;146991.16;1720780;82;21669;-58
2022/01/22 07:07:09;;;;;;;15.78;4.22;;;;;;;-2.68;61.13;147009.12;1729109;82;21104;-59
2022/01/22 07:09:37;;;;;;;11.90;4.22;;;;;;;-2.61;61.04;147027.09;1723527;82;21013;-60
2022/01/22 07:12:06;;;;;;;15.25;4.47;;;;;;;-2.55;61.00;147039.91;1737156;82;21101;-62
2022/01/22 07:14:33;;;;;;;12.15;3.83;;;;;;;-2.46;61.06;147064.31;1699716;81;21649;-59
2022/01/22 07:17:00;;;;;;;12.40;3.72;;;;;;;-2.36;61.00;147088.72;1708710;81;21108;-60
2022/01/22 07:19:38;;;;;;;10.88;4.30;;;;;;;-2.27;60.81;147109.31;1727840;81;21093;-60
2022/01/22 07:22:08;;;;;;;11.75;4.72;;;;;;;-2.16;60.76;147137.53;1738483;81;21024;-60
2022/01/22 07:24:37;;;;;;;13.15;4.40;;;;;;;-2.04;60.60;147167.09;1725270;81;21040;-60
2022/01/22 07:27:01;;;;;;;8.15;3.92;;;;;;;-1.93;60.53;147194.06;1736674;82;21576;-60
2022/01/22 07:29:32;;;;;;;11.38;3.67;;;;;;;-1.80;60.32;147227.50;1703144;82;21029;-60
2022/01/22 07:32:01;;;;;;;9.43;3.77;;;;;;;-1.70;60.08;147251.91;1713301;82;21572;-60
2022/01/22 07:34:27;;;;;;;10.40;3.83;;;;;;;-1.61;59.91;147273.77;1709616;81;21167;-59
2022/01/22 07:37:02;;;;;;;7.87;3.22;;;;;;;-1.47;59.71;147308.47;1717564;82;21535;-59
2022/01/22 07:39:26;;;;;;;11.88;4.45;;;;;;;-1.36;59.52;147335.47;1717489;82;21100;-60
2022/01/22 07:42:13;;;;;;;9.90;3.62;;;;;;;-1.20;59.40;147375.30;1717887;82;21711;-60
2022/01/22 07:44:45;;;;;;;7.05;2.83;;;;;;;-0.96;58.92;147435.75;1731869;80;21516;-59
2022/01/22 07:47:13;;;;;;;10.75;3.20;;;;;;;-0.73;58.14;147492.34;1742711;80;21087;-59
2022/01/22 07:49:41;;;;;;;11.18;3.25;;;;;;;-0.51;57.58;147547.62;1738666;80;21111;-59
2022/01/22 07:52:08;;;;;;;24.80;4.17;;;;;;;-0.26;56.87;147608.13;1751216;80;21616;-59
2022/01/22 07:54:39;;;;;;;14.70;4.00;;;;;;;-0.05;56.08;147662.16;1752442;80;21126;-61
2022/01/22 07:57:05;;;;;;;9.60;2.90;;;;;;;0.17;55.42;147716.22;1738133;80;21124;-59
2022/01/22 07:59:35;;;;;;;12.00;3.10;;;;;;;0.36;54.47;147762.56;1739200;80;21143;-59
2022/01/22 08:02:03;;;;;;;14.53;3.50;;;;;;;0.50;53.90;147797.33;1758229;80;21126;-58
2022/01/22 08:04:33;;;;;;;10.38;3.42;;;;;;;0.59;53.34;147820.48;1713655;80;21021;-60
2022/01/22 08:07:18;;;;;;;12.40;3.40;;;;;;;0.66;52.60;147838.55;1756619;80;21583;-60
2022/01/22 08:10:08;;;;;;;13.20;3.65;;;;;;;0.70;52.08;147848.84;1747686;80;26562;-59
2022/01/22 08:12:42;;;;;;;11.30;2.92;;;;;;;0.74;51.57;147857.81;1743623;80;21476;-60
2022/01/22 08:15:13;;;;;;;7.50;3.05;;;;;;;0.78;51.21;147868.16;1743301;80;21160;-59
2022/01/22 08:17:41;;;;;;;7.83;3.05;;;;;;;0.81;50.54;147875.88;1732820;80;21047;-59
2022/01/22 08:20:16;;;;;;;7.47;3.05;;;;;;;0.78;50.33;147868.16;1741870;80;21048;-60
2022/01/22 08:22:52;;;;;;;11.10;3.45;;;;;;;0.77;50.16;147865.53;1743154;80;21061;-60
2022/01/22 08:25:39;;;;;;;9.23;3.77;;;;;;;0.77;50.06;147865.53;1736023;80;21073;-60
2022/01/22 08:31:17;;;;;;;9.58;3.12;;;;;;;0.70;49.60;147847.52;1732142;80;21124;-59
2022/01/22 08:35:52;;;;;;;14.00;3.17;;;;;;;0.60;49.68;147821.78;1745216;80;21069;-63
2022/01/22 08:36:02;;;;;;;6.55;3.00;;;;;;;0.50;49.74;147798.59;1735099;80;21120;-60
2022/01/22 08:38:30;;;;;;;8.88;3.42;;;;;;;0.38;49.70;147767.72;1750933;80;21059;-61
2022/01/22 08:40:57;;;;;;;8.68;3.00;;;;;;;0.28;50.12;147744.52;1721135;80;21539;-60
2022/01/22 08:43:27;;;;;;;9.65;3.27;;;;;;;0.27;50.17;147741.94;1744013;80;21452;-60
2022/01/22 08:45:54;;;;;;;8.98;3.65;;;;;;;0.17;50.08;147716.22;1737586;80;21100;-61
2022/01/22 08:48:21;;;;;;;10.15;4.00;;;;;;;0.04;50.49;147684.05;1734905;81;21080;-59
2022/01/22 08:50:50;;;;;;;10.93;4.30;;;;;;;-0.02;50.82;147668.56;1746314;80;21077;-60
2022/01/22 08:53:17;;;;;;;9.20;3.17;;;;;;;-0.03;51.26;147667.31;1770806;80;21130;-59
2022/01/22 08:55:44;;;;;;;7.12;3.37;;;;;;;0.04;51.65;147682.73;1747474;80;21502;-59
2022/01/22 08:58:11;;;;;;;13.35;3.20;;;;;;;0.07;51.77;147690.45;1740935;81;20992;-60
2022/01/22 09:00:42;;;;;;;7.10;3.50;;;;;;;-0.03;52.04;147666.00;1758818;80;21056;-61
2022/01/22 09:03:11;;;;;;;9.75;3.55;;;;;;;-0.10;52.43;147649.31;1731558;81;21699;-59
2022/01/22 09:05:43;;;;;;;14.63;3.40;;;;;;;-0.08;52.77;147654.45;1677911;82;21153;-60
2022/01/22 09:08:11;;;;;;;10.20;3.72;;;;;;;-0.01;52.69;147672.45;1667276;83;21095;-59
2022/01/22 09:10:43;;;;;;;18.02;4.05;;;;;;;0.05;52.63;147685.31;1705834;82;21054;-60
2022/01/22 09:13:25;;;;;;;13.72;3.77;;;;;;;0.12;52.59;147703.36;1725269;82;21565;-61
2022/01/22 09:15:54;;;;;;;16.10;4.37;;;;;;;0.18;52.57;147718.80;1737565;82;21087;-59
2022/01/22 09:18:21;;;;;;;11.78;4.25;;;;;;;0.25;52.53;147736.80;1718659;82;21096;-60
2022/01/22 09:23:18;;;;;;;10.78;4.90;;;;;;;0.46;52.50;147788.30;1726939;82;20977;-60
2022/01/22 09:25:46;;;;;;;14.85;6.22;;;;;;;0.61;52.36;147824.37;1735412;82;21443;-59
2022/01/22 09:28:14;;;;;;;12.78;4.75;;;;;;;0.75;52.11;147860.39;1717883;82;21393;-58
2022/01/22 09:30:43;;;;;;;14.15;4.17;;;;;;;0.89;51.97;147893.89;1732850;82;21116;-59
2022/01/22 09:33:10;;;;;;;17.35;4.05;;;;;;;0.97;51.88;147914.48;1723536;82;21596;-61
2022/01/22 09:35:39;;;;;;;14.35;4.12;;;;;;;1.06;51.91;147937.69;1739772;80;21421;-60
2022/01/22 09:38:24;;;;;;;6.05;3.50;;;;;;;1.18;51.79;147966.02;1738934;80;21052;-60
2022/01/22 09:41:05;;;;;;;7.70;3.17;;;;;;;1.28;51.66;147991.80;1699966;80;21041;-60
2022/01/22 09:43:37;;;;;;;12.43;3.98;;;;;;;1.39;51.66;148020.13;1743559;80;21039;-61
2022/01/22 09:46:22;;;;;;;;;;;;;;;1.48;51.58;148042.03;1723475;81;20965;-59
2022/01/22 09:48:54;;;;;;;8.75;3.35;;;;;;;1.51;51.37;148049.75;1755586;81;20137;-59
2022/01/22 09:51:40;;;;;;;7.62;3.30;;;;;;;1.43;51.28;148029.16;1741571;81;21493;-59
2022/01/22 09:54:26;;;;;;;9.38;3.65;;;;;;;1.26;51.62;147986.66;1766089;80;21449;-60
2022/01/22 09:57:03;;;;;;;7.85;4.20;;;;;;;1.17;52.12;147963.44;1721590;80;23191;-60
2022/01/22 09:59:45;;;;;;;13.58;3.72;;;;;;;1.11;52.41;147949.31;1756179;80;21064;-59
2022/01/22 10:02:45;;;;;;;11.10;3.42;;;;;;;1.08;52.88;147942.84;1757344;81;21197;-60
2022/01/22 10:05:35;;;;;;;12.73;3.62;;;;;;;1.04;53.08;147932.55;1724506;80;21037;-59
2022/01/22 10:08:28;;;;;;;7.97;3.10;;;;;;;0.96;53.38;147911.91;1703624;81;21460;-60
2022/01/22 10:11:21;;;;;;;8.63;3.70;;;;;;;0.94;53.56;147906.77;1760276;81;21120;-62
2022/01/22 10:14:07;;;;;;;8.43;3.52;;;;;;;0.96;53.63;147911.91;1734671;81;21676;-59
2022/01/22 10:16:36;;;;;;;8.45;3.75;;;;;;;0.99;53.63;147920.94;1754027;81;21521;-59
2022/01/22 10:19:16;;;;;;;11.83;4.03;;;;;;;1.08;53.80;147942.84;1747170;81;21586;-60
2022/01/22 10:21:49;;;;;;;7.45;3.47;;;;;;;1.24;53.78;147982.77;1759430;80;21068;-59
2022/01/22 10:24:45;;;;;;;9.85;3.98;;;;;;;1.30;53.83;147996.95;1753489;80;21035;-62
2022/01/22 10:27:36;;;;;;;11.57;3.50;;;;;;;1.28;53.98;147991.80;1748946;80;21045;-60
2022/01/22 10:30:10;;;;;;;8.45;3.45;;;;;;;1.21;54.25;147973.73;1754867;81;21005;-61
2022/01/22 10:32:50;;;;;;;10.40;3.95;;;;;;;1.10;54.53;147947.98;1747433;81;21031;-60
2022/01/22 10:35:33;;;;;;;12.28;4.20;;;;;;;1.07;54.74;147940.27;1749718;81;21032;-59
2022/01/22 10:38:21;;;;;;;20.40;4.40;;;;;;;1.10;54.82;147947.98;1678798;84;21548;-60
2022/01/22 10:40:47;;;;;;;13.85;4.40;;;;;;;1.19;54.92;147969.89;1722735;82;20998;-61
2022/01/22 10:43:34;;;;;;;11.65;4.62;;;;;;;1.32;54.75;148002.09;1715622;82;21478;-60
2022/01/22 10:46:10;;;;;;;12.13;5.03;;;;;;;1.46;54.57;148035.62;1703623;82;21062;-59
2022/01/22 10:48:41;;;;;;;9.23;4.33;;;;;;;1.61;54.38;148074.23;1701073;83;21578;-59
2022/01/22 10:51:16;;;;;;;10.85;4.85;;;;;;;1.67;53.92;148089.75;1695061;82;21798;-59
2022/01/22 10:53:48;;;;;;;9.38;4.37;;;;;;;1.71;53.88;148098.73;1685244;83;20968;-59
2022/01/22 10:56:20;;;;;;;17.12;4.75;;;;;;;1.81;53.80;148123.22;1688865;83;21079;-59
2022/01/22 10:59:07;;;;;;;11.38;3.92;;;;;;;1.93;53.69;148152.87;1685445;82;21587;-59
2022/01/22 11:01:59;;;;;;;7.95;3.87;;;;;;;2.11;53.37;148198.02;1698961;82;21065;-60
2022/01/22 11:04:40;;;;;;;10.55;3.95;;;;;;;2.20;52.81;148219.89;1686373;83;21815;-60
2022/01/22 11:07:09;;;;;;;8.18;4.35;;;;;;;2.18;52.90;148214.73;1697219;83;21045;-60
2022/01/22 11:09:37;;;;;;;10.25;4.47;;;;;;;2.23;52.91;148228.94;1704089;83;20965;-58
2022/01/22 11:12:07;;;;;;;9.70;4.40;;;;;;;2.27;52.92;148239.25;1687429;83;21014;-59
2022/01/22 11:14:37;;;;;;;7.45;4.20;;;;;;;2.34;53.02;148254.75;1681027;83;21061;-59
2022/01/22 11:17:08;;;;;;;11.43;4.17;;;;;;;2.43;53.03;148277.94;1683516;83;21128;-59
2022/01/22 11:19:37;;;;;;;7.28;3.85;;;;;;;2.40;53.13;148270.20;1689306;83;21054;-60
2022/01/22 11:22:14;;;;;;;16.35;4.17;;;;;;;2.17;53.43;148213.47;1676641;83;20977;-59
2022/01/22 11:24:50;;;;;;;9.83;4.50;;;;;;;2.00;53.86;148170.94;1691899;83;22429;-59
2022/01/22 11:27:20;;;;;;;9.38;4.17;;;;;;;1.89;54.31;148143.88;1685247;83;21085;-59
2022/01/22 11:30:11;;;;;;;9.58;4.15;;;;;;;1.80;54.48;148121.97;1701048;83;21672;-60
2022/01/22 11:32:49;;;;;;;56.20;24.63;;;;;;;1.74;54.59;148106.45;1706210;83;21107;-60
2022/01/22 11:35:37;;;;;;;41.55;16.93;;;;;;;1.69;54.86;148094.89;1701784;84;22192;-60
2022/01/22 11:38:09;;;;;;;12.20;5.05;;;;;;;1.67;55.09;148088.44;1700453;81;21016;-60
2022/01/22 11:40:36;;;;;;;19.40;6.53;;;;;;;1.76;55.21;148110.34;1687278;84;22130;-61
2022/01/22 11:43:08;;;;;;;10.58;4.20;;;;;;;1.92;54.92;148151.59;1692249;82;21617;-59
2022/01/22 11:45:44;;;;;;;10.35;4.40;;;;;;;2.00;54.25;148172.22;1709718;80;21445;-61
2022/01/22 11:48:28;;;;;;;;;;;;;;;2.03;54.11;148177.36;1716032;81;21489;-60
2022/01/22 11:50:58;;;;;;;7.45;4.42;;;;;;;2.03;54.09;148177.36;1730615;82;20207;-60
2022/01/22 11:53:32;;;;;;;9.78;4.65;;;;;;;2.04;53.92;148179.94;1708034;81;21112;-60
2022/01/22 11:56:24;;;;;;;9.03;4.22;;;;;;;2.00;54.07;148172.22;1717839;82;21077;-60
2022/01/22 11:59:06;;;;;;;21.90;6.90;;;;;;;2.11;54.32;148199.28;1733100;82;21791;-59
2022/01/22 12:01:53;;;;;;;29.50;10.80;;;;;;;2.31;54.20;148248.28;1721470;82;21069;-60
2022/01/22 12:04:42;;;;;;;39.83;15.70;;;;;;;2.40;53.35;148270.20;1719058;82;21088;-60
2022/01/22 12:07:12;;;;;;;12.95;6.67;;;;;;;2.36;53.17;148261.16;1721364;82;21549;-60
2022/01/22 12:15:49;;;;;;;16.35;6.12;;;;;;;2.23;53.23;148228.94;1705081;82;21537;-60
2022/01/22 12:18:19;;;;;;;15.32;6.12;;;;;;;2.18;52.86;148216.06;1707529;82;21553;-60
2022/01/22 12:23:26;;;;;;;17.15;5.80;;;;;;;1.76;53.57;148110.34;1723092;82;21521;-60
2022/01/22 12:25:53;;;;;;;52.27;21.50;;;;;;;1.56;54.51;148061.37;1691313;82;21064;-61
2022/01/22 12:28:45;;;;;;;18.40;8.30;;;;;;;1.41;54.92;148025.27;1730813;82;21120;-59
2022/01/22 12:31:24;;;;;;;47.13;18.67;;;;;;;1.32;55.27;148002.09;1692419;83;21081;-60
2022/01/22 12:33:52;;;;;;;19.95;7.70;;;;;;;1.22;55.52;147976.36;1682000;83;21105;-61
2022/01/22 12:36:28;;;;;;;11.00;4.30;;;;;;;1.17;55.71;147963.44;1709865;82;22198;-60
2022/01/22 12:39:06;;;;;;;44.63;17.48;;;;;;;1.13;55.66;147955.72;1716336;82;21457;-61
2022/01/22 12:44:28;;;;;;;70.55;30.55;;;;;;;1.09;56.32;147945.42;1703745;82;21128;-60
2022/01/22 12:47:09;;;;;;;54.55;23.07;;;;;;;1.12;56.48;147953.14;1677179;85;26714;-60
2022/01/22 12:49:36;;;;;;;18.80;8.68;;;;;;;1.14;56.59;147958.28;1705459;83;21099;-60
2022/01/22 12:52:09;;;;;;;8.48;4.37;;;;;;;1.21;56.44;147973.73;1705849;83;21368;-60
2022/01/22 12:54:42;;;;;;;11.63;5.20;;;;;;;1.18;56.18;147966.02;1709227;83;21448;-60
2022/01/22 12:57:16;;;;;;;9.45;4.17;;;;;;;1.12;56.56;147953.14;1703600;83;21489;-59
2022/01/22 13:00:06;;;;;;;8.65;4.75;;;;;;;1.16;56.84;147960.86;1705479;83;21494;-58
2022/01/22 13:02:42;;;;;;;9.15;3.83;;;;;;;1.23;56.98;147980.19;1704215;83;21155;-59
2022/01/22 13:05:11;;;;;;;8.43;4.05;;;;;;;1.34;56.96;148007.25;1706962;83;21113;-58
2022/01/22 13:08:00;;;;;;;11.93;4.12;;;;;;;1.39;56.97;148020.13;1701809;82;21093;-59
2022/01/22 13:10:44;;;;;;;9.40;4.78;;;;;;;1.46;57.13;148035.62;1686138;82;21092;-59
2022/01/22 13:13:14;;;;;;;8.95;4.10;;;;;;;1.55;57.26;148058.78;1715546;82;21541;-59